Time;durP1;ratioP1;P1;durP2;ratioP2;P2;SDS_P1;SDS_P2;PMS_P1;PMS_P2;Temp;Humidity;BMP_temperature;BMP_pressure;BME280_temperature;BME280_humidity;BME280_pressure;Samples;Min_cycle;Max_cycle;Signal;HPM_P1;HPM_P2
2023/04/25 00:01:17;;;;;;;16.60;4.07;;;6.00;29.50;;;;;;5094438;28;20062;-22
2023/04/25 00:03:43;;;;;;;20.50;4.05;;;6.00;23.90;;;;;;5095522;28;20041;-22
2023/04/25 00:06:09;;;;;;;18.85;3.35;;;6.00;1.00;;;;;;5094386;28;20453;-22
2023/04/25 00:08:34;;;;;;;21.70;3.47;;;6.00;32.20;;;;;;5077056;28;20097;-22
2023/04/25 00:11:00;;;;;;;21.42;3.30;;;6.10;16.50;;;;;;5094290;28;20501;-22
2023/04/25 00:13:26;;;;;;;21.08;3.17;;;6.20;86.90;;;;;;5076213;28;20410;-22
2023/04/25 00:15:59;;;;;;;18.80;3.90;;;6.20;1.00;;;;;;5094198;28;20040;-22
2023/04/25 00:18:28;;;;;;;;;;;6.20;1.00;;;;;;5094636;28;20043;-22
2023/04/25 00:20:54;;;;;;;17.42;2.83;;;6.10;99.90;;;;;;5076532;28;19919;-22
2023/04/25 00:23:20;;;;;;;15.73;3.03;;;6.00;99.90;;;;;;5094115;28;20044;-22
2023/04/25 00:25:50;;;;;;;20.13;3.35;;;6.00;99.90;;;;;;5094039;28;20052;-22
2023/04/25 00:28:16;;;;;;;19.98;2.25;;;6.00;99.90;;;;;;5093889;28;20543;-22
2023/04/25 00:30:43;;;;;;;13.70;2.35;;;6.00;99.90;;;;;;5094269;28;20389;-22
2023/04/25 00:33:09;;;;;;;16.00;2.95;;;6.00;18.70;;;;;;5093862;28;20044;-22
2023/04/25 00:35:35;;;;;;;11.88;2.22;;;6.00;1.00;;;;;;5075868;28;20567;-22
2023/04/25 00:38:02;;;;;;;15.02;2.78;;;6.00;1.00;;;;;;5076813;28;20097;-22
2023/04/25 00:40:28;;;;;;;16.75;2.72;;;6.00;17.80;;;;;;5093831;28;20044;-22
2023/04/25 00:42:54;;;;;;;21.13;2.90;;;5.90;1.00;;;;;;5094665;28;20044;-22
2023/04/25 00:45:20;;;;;;;15.05;2.80;;;5.90;32.50;;;;;;5093884;28;20450;-22
2023/04/25 00:47:47;;;;;;;13.07;2.28;;;5.90;1.00;;;;;;5094318;28;20055;-22
2023/04/25 00:50:13;;;;;;;12.80;2.72;;;5.90;1.00;;;;;;5075859;28;20044;-22
2023/04/25 00:52:44;;;;;;;15.32;2.75;;;5.90;1.00;;;;;;5075769;28;20051;-22
2023/04/25 00:55:11;;;;;;;16.75;3.05;;;5.90;1.00;;;;;;5093975;28;20127;-22
2023/04/25 00:57:37;;;;;;;14.20;2.13;;;5.80;1.00;;;;;;5093661;28;20490;-22
2023/04/25 01:00:06;;;;;;;16.40;3.08;;;5.80;99.90;;;;;;5093740;28;20040;-22
2023/04/25 01:02:35;;;;;;;14.50;2.30;;;5.70;1.00;;;;;;5093346;28;20448;-22
2023/04/25 01:05:02;;;;;;;20.33;2.83;;;5.70;99.90;;;;;;5093596;28;20097;-22
2023/04/25 01:07:28;;;;;;;11.38;2.25;;;5.70;99.90;;;;;;5093858;28;20123;-22
2023/04/25 01:09:54;;;;;;;18.88;2.63;;;5.60;99.90;;;;;;5075588;28;20433;-22
2023/04/25 01:12:20;;;;;;;19.65;2.78;;;5.60;99.90;;;;;;5093453;28;20046;-22
2023/04/25 01:14:46;;;;;;;12.52;2.30;;;5.50;99.90;;;;;;5094121;28;20048;-22
2023/04/25 01:17:12;;;;;;;18.90;3.70;;;5.50;99.90;;;;;;5093472;28;20454;-22
2023/04/25 01:19:39;;;;;;;13.90;2.10;;;5.50;99.90;;;;;;5094270;28;20044;-22
2023/04/25 01:22:05;;;;;;;13.60;2.50;;;5.60;99.90;;;;;;5075681;28;20044;-22
2023/04/25 01:24:34;;;;;;;17.73;2.38;;;5.60;92.20;;;;;;5075424;28;20393;-22
2023/04/25 01:27:03;;;;;;;18.98;3.10;;;5.70;38.30;;;;;;5094232;28;20048;-22
2023/04/25 01:29:29;;;;;;;19.67;3.30;;;5.70;11.90;;;;;;5093417;28;20055;-22
2023/04/25 01:31:56;;;;;;;17.35;3.20;;;5.70;55.80;;;;;;5093373;28;20537;-22
2023/04/25 01:34:22;;;;;;;19.52;2.97;;;5.70;99.90;;;;;;5058666;28;20060;-22
2023/04/25 01:36:50;;;;;;;18.17;3.15;;;5.70;99.90;;;;;;5076319;28;20131;-22
2023/04/25 01:39:17;;;;;;;20.85;2.75;;;5.80;99.90;;;;;;5095212;28;20105;-22
2023/04/25 01:41:43;;;;;;;9.85;2.35;;;5.70;1.00;;;;;;5098020;28;20070;-22
2023/04/25 01:44:09;;;;;;;9.73;2.45;;;5.70;1.00;;;;;;5096977;28;20470;-22
2023/04/25 01:46:35;;;;;;;11.10;2.17;;;5.60;1.00;;;;;;5079172;28;20129;-22
2023/04/25 01:49:01;;;;;;;11.60;2.75;;;5.70;1.00;;;;;;5097561;28;20177;-22
2023/04/25 01:51:27;;;;;;;12.35;1.92;;;5.70;1.00;;;;;;5096948;28;20075;-22
2023/04/25 01:53:53;;;;;;;19.48;2.72;;;5.60;1.00;;;;;;5096827;28;20478;-22
2023/04/25 01:56:20;;;;;;;13.05;2.17;;;5.60;1.00;;;;;;5097146;28;20048;-22
2023/04/25 01:58:45;;;;;;;19.55;2.45;;;5.60;1.00;;;;;;5096805;28;20044;-22
2023/04/25 02:01:11;;;;;;;16.92;2.33;;;5.60;1.00;;;;;;5097039;28;20565;-22
2023/04/25 02:03:38;;;;;;;12.95;2.42;;;5.60;1.00;;;;;;5079641;28;20055;-23
2023/04/25 02:06:05;;;;;;;14.88;2.08;;;5.60;1.00;;;;;;5078820;28;20097;-23
2023/04/25 02:08:31;;;;;;;15.40;2.10;;;5.60;1.00;;;;;;5078470;28;20471;-23
2023/04/25 02:10:57;;;;;;;16.52;2.90;;;5.60;1.00;;;;;;5078647;28;20109;-22
2023/04/25 02:13:23;;;;;;;15.13;2.58;;;5.70;99.90;;;;;;5078511;28;20040;-22
2023/04/25 02:15:48;;;;;;;15.02;2.05;;;5.70;99.90;;;;;;5079313;28;20097;-22
2023/04/25 02:18:16;;;;;;;18.20;2.40;;;5.70;1.00;;;;;;5096421;28;20440;-22
2023/04/25 02:20:42;;;;;;;17.63;2.40;;;5.60;91.40;;;;;;5096450;28;20056;-22
2023/04/25 02:23:08;;;;;;;17.67;2.90;;;5.60;99.90;;;;;;5078471;28;20500;-22
2023/04/25 02:25:34;;;;;;;16.83;2.63;;;5.50;99.90;;;;;;5096385;28;20047;-22
2023/04/25 02:28:00;;;;;;;23.95;4.05;;;5.50;99.90;;;;;;5097094;28;20513;-22
2023/04/25 02:30:25;;;;;;;26.15;3.15;;;5.50;99.90;;;;;;5097049;28;20474;-22
2023/04/25 02:32:51;;;;;;;14.40;1.67;;;5.40;99.90;;;;;;5096085;28;20062;-22
2023/04/25 02:35:17;;;;;;;15.88;2.78;;;5.40;99.90;;;;;;5096103;28;20052;-22
2023/04/25 02:37:43;;;;;;;13.18;2.67;;;5.30;91.90;;;;;;5077959;28;20097;-22
2023/04/25 02:40:09;;;;;;;16.48;2.35;;;5.40;99.90;;;;;;5096607;28;20047;-22
2023/04/25 02:42:35;;;;;;;12.73;2.03;;;5.30;99.90;;;;;;5096010;28;20044;-22
2023/04/25 02:45:02;;;;;;;17.55;2.97;;;5.30;99.90;;;;;;5061107;28;20401;-22
2023/04/25 02:47:28;;;;;;;13.23;2.65;;;5.30;99.90;;;;;;5077922;28;20048;-22
2023/04/25 02:49:53;;;;;;;17.02;2.58;;;5.30;81.50;;;;;;5076770;28;20044;-22
2023/04/25 02:52:19;;;;;;;15.10;2.47;;;5.30;99.90;;;;;;5095745;28;20044;-22
2023/04/25 02:54:45;;;;;;;10.30;1.65;;;5.30;99.90;;;;;;5096278;28;20040;-22
2023/04/25 02:57:11;;;;;;;10.75;2.08;;;5.30;1.40;;;;;;5095698;28;20087;-22
2023/04/25 02:59:36;;;;;;;7.57;1.58;;;5.40;1.00;;;;;;5095684;28;20093;-22
2023/04/25 03:02:02;;;;;;;10.25;2.95;;;5.40;1.00;;;;;;5095630;28;20158;-22
2023/04/25 03:04:28;;;;;;;7.43;1.45;;;5.30;99.90;;;;;;5077450;28;20082;-22
2023/04/25 03:06:54;;;;;;;9.88;1.83;;;5.30;99.90;;;;;;5095515;28;20044;-22
2023/04/25 03:09:20;;;;;;;24.17;3.08;;;5.20;50.70;;;;;;5077334;28;20126;-22
2023/04/25 03:11:46;;;;;;;12.25;2.40;;;5.10;99.10;;;;;;5095384;28;20497;-22
2023/04/25 03:14:12;;;;;;;12.07;1.50;;;4.90;93.20;;;;;;5095257;28;20032;-22
2023/04/25 03:16:38;;;;;;;13.65;1.83;;;4.80;99.90;;;;;;5095900;28;20052;-22
2023/04/25 03:19:04;;;;;;;16.75;2.35;;;4.80;99.90;;;;;;5077433;28;20091;-22
2023/04/25 03:21:33;;;;;;;15.20;2.17;;;4.70;99.90;;;;;;5096027;28;20046;-22
2023/04/25 03:24:02;;;;;;;12.27;2.17;;;4.70;99.90;;;;;;5095151;28;20496;-22
2023/04/25 03:26:28;;;;;;;16.27;2.25;;;4.50;99.90;;;;;;5095110;28;20044;-22
2023/04/25 03:28:54;;;;;;;14.55;2.75;;;4.50;99.90;;;;;;5095170;28;20086;-22
2023/04/25 03:31:20;;;;;;;11.13;1.92;;;4.40;99.90;;;;;;5095051;28;20048;-22
2023/04/25 03:33:45;;;;;;;10.75;1.95;;;4.40;99.90;;;;;;5077412;28;20119;-22
2023/04/25 03:36:11;;;;;;;10.90;1.70;;;4.30;1.00;;;;;;5077120;28;20140;-22
2023/04/25 03:38:37;;;;;;;13.57;2.22;;;4.20;1.00;;;;;;5076935;28;20370;-22
2023/04/25 03:41:03;;;;;;;9.90;2.13;;;4.20;1.00;;;;;;5094846;28;20048;-22
2023/04/25 03:43:28;;;;;;;14.82;2.00;;;4.20;1.00;;;;;;5094801;28;20489;-22
2023/04/25 03:45:54;;;;;;;13.25;2.13;;;4.30;1.00;;;;;;5094626;28;20052;-22
2023/04/25 03:48:24;;;;;;;11.85;2.30;;;4.30;1.00;;;;;;5076986;28;20052;-22
2023/04/25 03:50:50;;;;;;;13.70;2.15;;;4.20;33.00;;;;;;5095779;28;20044;-22
2023/04/25 03:53:16;;;;;;;11.50;2.63;;;4.10;99.90;;;;;;5076506;28;20051;-22
2023/04/25 03:55:41;;;;;;;19.70;3.22;;;4.10;99.90;;;;;;5094870;28;20040;-22
2023/04/25 03:58:08;;;;;;;13.10;1.98;;;4.10;99.90;;;;;;5094853;28;20047;-22
2023/04/25 04:00:35;;;;;;;19.00;3.28;;;4.20;99.90;;;;;;5094473;28;20048;-22
2023/04/25 04:03:01;;;;;;;16.35;2.35;;;4.30;99.90;;;;;;5094113;28;20036;-22
2023/04/25 04:05:27;;;;;;;16.40;2.85;;;4.30;99.90;;;;;;5094069;28;20117;-22
2023/04/25 04:07:53;;;;;;;16.83;1.98;;;4.30;99.90;;;;;;5094889;28;20043;-22
2023/04/25 04:10:19;;;;;;;14.00;2.97;;;4.40;99.90;;;;;;5094350;28;20128;-22
2023/04/25 04:12:45;;;;;;;14.27;1.75;;;4.40;99.90;;;;;;5076338;28;20482;-22
2023/04/25 04:15:11;;;;;;;10.98;2.15;;;4.30;99.90;;;;;;5077141;28;20055;-22
2023/04/25 04:17:37;;;;;;;15.32;2.25;;;4.20;99.90;;;;;;5094209;28;20108;-22
2023/04/25 04:20:03;;;;;;;15.13;2.83;;;4.10;99.90;;;;;;5094165;28;20127;-22
2023/04/25 04:22:29;;;;;;;17.08;2.28;;;4.00;99.90;;;;;;5094662;28;20054;-22
2023/04/25 04:24:56;;;;;;;10.85;1.63;;;3.80;99.90;;;;;;5076862;28;20039;-22
2023/04/25 04:27:22;;;;;;;16.63;2.78;;;3.70;99.90;;;;;;5094047;28;20486;-22
2023/04/25 04:29:48;;;;;;;12.60;1.88;;;3.50;1.00;;;;;;5094011;28;20054;-22
2023/04/25 04:32:15;;;;;;;21.25;2.28;;;3.30;1.00;;;;;;5075935;28;20130;-22
2023/04/25 04:34:41;;;;;;;15.90;2.77;;;3.10;1.00;;;;;;5075875;28;20044;-22
2023/04/25 04:37:07;;;;;;;14.67;2.23;;;2.90;1.00;;;;;;5075799;28;20048;-22
2023/04/25 04:39:34;;;;;;;20.83;2.90;;;2.90;1.00;;;;;;5094713;28;20440;-22
2023/04/25 04:42:01;;;;;;;21.07;2.73;;;2.70;35.30;;;;;;5093834;28;20044;-22
2023/04/25 04:44:28;;;;;;;12.47;1.90;;;2.80;99.90;;;;;;5076675;28;20113;-22
2023/04/25 04:46:54;;;;;;;9.40;2.00;;;2.80;99.90;;;;;;5093724;28;20095;-22
2023/04/25 04:49:21;;;;;;;15.33;2.43;;;2.80;99.90;;;;;;5075990;28;20044;-22
2023/04/25 04:51:49;;;;;;;12.75;2.00;;;2.90;99.90;;;;;;5075847;28;20048;-22
2023/04/25 04:54:15;;;;;;;13.97;1.97;;;3.10;99.90;;;;;;5093438;28;20494;-22
2023/04/25 04:56:41;;;;;;;12.25;1.88;;;3.30;1.00;;;;;;5076266;28;20051;-22
2023/04/25 04:59:07;;;;;;;9.13;1.83;;;3.40;99.90;;;;;;5076416;28;20052;-22
2023/04/25 05:01:35;;;;;;;19.95;2.55;;;3.60;99.90;;;;;;5075893;28;20040;-22
2023/04/25 05:04:02;;;;;;;12.52;2.60;;;3.90;99.90;;;;;;5094416;28;20044;-22
2023/04/25 05:06:31;;;;;;;10.60;1.77;;;4.10;99.90;;;;;;5094040;28;20093;-22
2023/04/25 05:08:57;;;;;;;9.38;1.90;;;4.10;99.90;;;;;;5075600;28;20131;-22
2023/04/25 05:11:27;;;;;;;7.53;1.50;;;4.20;99.90;;;;;;5075676;28;20040;-22
2023/04/25 05:13:53;;;;;;;11.45;2.42;;;4.10;99.90;;;;;;5076680;28;20051;-22
2023/04/25 05:16:19;;;;;;;13.75;2.00;;;3.90;99.90;;;;;;5097980;28;20048;-22
2023/04/25 05:18:45;;;;;;;7.55;1.67;;;3.80;99.90;;;;;;5097472;28;20048;-22
2023/04/25 05:21:11;;;;;;;9.98;1.50;;;3.70;99.90;;;;;;5097229;28;20048;-22
2023/04/25 05:23:37;;;;;;;13.00;2.17;;;3.60;99.90;;;;;;5097519;28;20048;-22
2023/04/25 05:26:02;;;;;;;7.35;1.23;;;3.60;99.90;;;;;;5097425;28;20051;-22
2023/04/25 05:28:28;;;;;;;11.35;1.20;;;3.60;99.90;;;;;;5080103;28;20051;-22
2023/04/25 05:30:54;;;;;;;11.82;1.85;;;3.70;1.00;;;;;;5097379;28;20079;-22
2023/04/25 05:33:19;;;;;;;9.98;2.50;;;3.90;1.00;;;;;;5097265;28;20463;-22
2023/04/25 05:35:45;;;;;;;15.73;2.20;;;4.00;1.00;;;;;;5097300;28;20052;-22
2023/04/25 05:38:11;;;;;;;10.25;1.33;;;4.20;1.00;;;;;;5079211;28;20131;-22
2023/04/25 05:40:37;;;;;;;16.10;1.60;;;4.40;1.00;;;;;;5097177;28;20048;-22
2023/04/25 05:43:03;;;;;;;10.98;2.28;;;4.60;1.00;;;;;;5079306;28;20040;-22
2023/04/25 05:45:29;;;;;;;8.93;1.63;;;4.70;1.00;;;;;;5077345;28;20056;-22
2023/04/25 05:47:55;;;;;;;6.93;1.40;;;4.70;99.90;;;;;;5097088;28;20170;-22
2023/04/25 05:50:21;;;;;;;11.68;1.50;;;4.70;99.90;;;;;;5079946;28;20078;-22
2023/04/25 05:52:46;;;;;;;7.40;1.23;;;4.70;99.90;;;;;;5096919;28;20466;-22
2023/04/25 05:55:13;;;;;;;9.98;1.85;;;4.80;99.90;;;;;;5096905;28;20044;-22
2023/04/25 05:57:41;;;;;;;14.90;1.70;;;4.90;99.90;;;;;;5078389;28;20043;-22
2023/04/25 06:00:11;;;;;;;16.73;1.83;;;5.10;47.10;;;;;;5096791;28;20134;-22
2023/04/25 06:02:37;;;;;;;8.63;1.20;;;5.30;99.90;;;;;;5097351;28;20485;-22
2023/04/25 06:05:03;;;;;;;12.10;1.38;;;5.50;99.90;;;;;;5097257;28;20044;-22
2023/04/25 06:07:30;;;;;;;10.95;1.70;;;5.80;34.00;;;;;;5078608;28;20047;-22
2023/04/25 06:09:56;;;;;;;8.63;1.45;;;6.10;1.00;;;;;;5078812;28;20048;-22
2023/04/25 06:12:24;;;;;;;10.32;1.88;;;6.40;1.00;;;;;;5096497;28;20108;-23
2023/04/25 06:14:49;;;;;;;9.68;2.17;;;6.80;99.90;;;;;;5096480;28;20521;-22
2023/04/25 06:17:15;;;;;;;7.65;1.35;;;7.00;1.00;;;;;;5096817;28;20044;-22
2023/04/25 06:19:41;;;;;;;14.95;2.58;;;7.20;1.00;;;;;;5078890;28;20525;-22
2023/04/25 06:22:07;;;;;;;9.80;1.40;;;7.30;1.00;;;;;;5096967;28;20048;-22
2023/04/25 06:24:36;;;;;;;11.23;1.70;;;7.30;1.00;;;;;;5096028;28;20036;-22
2023/04/25 06:27:02;;;;;;;9.65;1.73;;;7.10;99.90;;;;;;5097137;28;20052;-22
2023/04/25 06:29:28;;;;;;;7.63;1.40;;;6.90;99.90;;;;;;5096251;28;20055;-22
2023/04/25 06:31:54;;;;;;;15.25;1.10;;;6.70;75.90;;;;;;5096246;28;20047;-22
2023/04/25 06:34:20;;;;;;;5.55;1.35;;;6.60;99.90;;;;;;5096928;28;20351;-22
2023/04/25 06:36:46;;;;;;;4.93;0.80;;;6.50;1.00;;;;;;5096164;28;20052;-22
2023/04/25 06:39:11;;;;;;;10.23;1.83;;;6.40;1.00;;;;;;5096668;28;20495;-22
2023/04/25 06:41:37;;;;;;;7.28;1.20;;;6.30;1.00;;;;;;5078257;28;20483;-22
2023/04/25 06:44:03;;;;;;;11.90;1.63;;;6.20;1.00;;;;;;5096018;28;20490;-22
2023/04/25 06:46:31;;;;;;;9.55;1.38;;;6.10;1.00;;;;;;5096062;28;20055;-22
2023/04/25 06:48:56;;;;;;;8.50;1.58;;;6.00;1.00;;;;;;5096000;28;20053;-22
2023/04/25 06:51:24;;;;;;;10.65;1.40;;;6.00;99.90;;;;;;5096152;28;20436;-22
2023/04/25 06:53:49;;;;;;;9.90;1.40;;;6.10;50.40;;;;;;5095673;28;20397;-22
2023/04/25 06:56:16;;;;;;;8.07;1.00;;;6.10;99.90;;;;;;5095756;28;20127;-22
2023/04/25 06:58:41;;;;;;;8.50;0.85;;;6.20;99.90;;;;;;5078087;28;20478;-22
2023/04/25 07:01:07;;;;;;;10.60;1.85;;;6.30;99.90;;;;;;5095634;28;20048;-22
2023/04/25 07:03:33;;;;;;;9.00;1.50;;;6.40;99.90;;;;;;5095583;28;20126;-22
2023/04/25 07:05:59;;;;;;;15.85;1.55;;;6.50;86.70;;;;;;5077546;28;20048;-22
2023/04/25 07:08:25;;;;;;;8.93;1.15;;;6.50;99.90;;;;;;5077763;28;20494;-22
2023/04/25 07:10:51;;;;;;;7.57;1.40;;;6.70;1.00;;;;;;5096313;28;20040;-22
2023/04/25 07:13:17;;;;;;;9.02;1.40;;;6.80;1.00;;;;;;5095660;28;20499;-22
2023/04/25 07:15:43;;;;;;;8.90;1.60;;;6.90;99.90;;;;;;5096243;28;20044;-22
2023/04/25 07:18:09;;;;;;;15.02;1.65;;;7.10;99.90;;;;;;5095343;28;20047;-22
2023/04/25 07:20:35;;;;;;;15.23;2.25;;;7.20;99.90;;;;;;5095840;28;20378;-22
2023/04/25 07:23:00;;;;;;;11.23;1.77;;;7.20;99.90;;;;;;5077460;28;20204;-22
2023/04/25 07:25:26;;;;;;;8.48;1.27;;;7.20;99.90;;;;;;5077186;28;20146;-22
2023/04/25 07:27:52;;;;;;;8.80;0.98;;;7.20;99.90;;;;;;5094826;28;20490;-22
2023/04/25 07:30:18;;;;;;;11.18;1.23;;;7.30;99.90;;;;;;5077086;28;20040;-22
2023/04/25 07:32:43;;;;;;;4.47;0.65;;;7.30;1.00;;;;;;5077082;28;20474;-22
2023/04/25 07:35:09;;;;;;;2.75;0.45;;;7.00;99.90;;;;;;5095016;28;20044;-22
2023/04/25 07:37:35;;;;;;;7.80;0.70;;;6.20;1.00;;;;;;5060570;28;20044;-22
2023/04/25 07:40:03;;;;;;;7.38;0.95;;;5.70;95.10;;;;;;5094907;28;20116;-22
2023/04/25 07:42:30;;;;;;;3.97;0.68;;;5.70;99.90;;;;;;5077000;28;20393;-22
2023/04/25 07:44:55;;;;;;;5.25;0.95;;;5.80;99.90;;;;;;5094773;28;20044;-22
2023/04/25 07:47:21;;;;;;;4.43;0.70;;;6.00;1.00;;;;;;5060111;28;20549;-22
2023/04/25 07:49:47;;;;;;;7.20;1.75;;;6.20;1.00;;;;;;5077090;28;20067;-22
2023/04/25 07:52:13;;;;;;;6.63;0.70;;;6.60;1.00;;;;;;5094355;28;20044;-22
2023/04/25 07:54:39;;;;;;;6.65;1.25;;;7.00;99.90;;;;;;5094546;28;20040;-22
2023/04/25 07:57:06;;;;;;;8.07;1.33;;;7.50;1.00;;;;;;5076536;28;20051;-23
2023/04/25 07:59:32;;;;;;;4.20;0.80;;;6.50;99.90;;;;;;5076737;28;20071;-23
2023/04/25 08:01:58;;;;;;;4.07;0.50;;;5.40;99.90;;;;;;5094476;28;20048;-22
2023/04/25 08:04:25;;;;;;;4.95;0.75;;;4.70;99.90;;;;;;5094436;28;20044;-22
2023/04/25 08:06:52;;;;;;;7.63;1.33;;;4.40;1.00;;;;;;5093960;28;20402;-22
2023/04/25 08:09:18;;;;;;;4.38;0.80;;;4.30;1.00;;;;;;5095110;28;20048;-23
2023/04/25 08:11:44;;;;;;;4.10;0.60;;;4.60;28.40;;;;;;5094244;28;20117;-22
2023/04/25 08:14:09;;;;;;;2.22;0.52;;;4.70;1.00;;;;;;5076124;28;20044;-22
2023/04/25 08:16:35;;;;;;;3.75;0.80;;;4.90;77.70;;;;;;5094543;28;20104;-22
2023/04/25 08:19:02;;;;;;;3.80;1.10;;;5.10;99.90;;;;;;5059424;28;20501;-22
2023/04/25 08:21:28;;;;;;;5.25;0.80;;;5.20;44.40;;;;;;5059347;28;20052;-22
2023/04/25 08:23:53;;;;;;;3.70;0.70;;;5.10;1.00;;;;;;5076067;28;20036;-22
2023/04/25 08:26:19;;;;;;;8.57;0.45;;;5.10;8.50;;;;;;5075928;28;20036;-22
2023/04/25 08:28:46;;;;;;;3.85;1.10;;;5.50;99.90;;;;;;5094219;28;20048;-22
2023/04/25 08:31:12;;;;;;;8.50;1.15;;;5.60;92.00;;;;;;5075899;28;20375;-22
2023/04/25 08:33:38;;;;;;;3.95;1.27;;;5.60;1.00;;;;;;5075940;28;20047;-22
2023/04/25 08:36:03;;;;;;;4.65;0.50;;;5.80;99.90;;;;;;5093968;28;20048;-22
2023/04/25 08:38:29;;;;;;;5.90;0.52;;;5.90;1.00;;;;;;5094432;28;20474;-22
2023/04/25 08:40:59;;;;;;;3.03;0.73;;;6.00;1.00;;;;;;5094683;28;20047;-22
2023/04/25 08:43:25;;;;;;;3.38;0.57;;;6.20;99.90;;;;;;5093564;28;20051;-22
2023/04/25 08:45:53;;;;;;;8.68;1.63;;;6.40;99.90;;;;;;5093800;28;20055;-22
2023/04/25 08:48:21;;;;;;;3.63;0.68;;;6.40;1.00;;;;;;5076017;28;20052;-22
2023/04/25 08:50:51;;;;;;;6.00;0.88;;;6.30;1.00;;;;;;5094151;28;20087;-22
2023/04/25 08:53:20;;;;;;;7.60;1.40;;;6.50;99.90;;;;;;5075630;28;20044;-22
2023/04/25 08:55:46;;;;;;;6.97;1.00;;;6.60;99.90;;;;;;5093718;28;20070;-22
2023/04/25 08:58:13;;;;;;;4.15;0.80;;;7.10;99.90;;;;;;5093694;28;20044;-22
2023/04/25 09:00:39;;;;;;;9.70;2.20;;;7.50;99.90;;;;;;5093637;28;20036;-22
2023/04/25 09:03:05;;;;;;;7.43;1.23;;;8.40;99.90;;;;;;5093651;28;20056;-22
2023/04/25 09:05:33;;;;;;;5.45;1.02;;;9.10;99.90;;;;;;5075745;28;20055;-22
2023/04/25 09:08:00;;;;;;;8.32;1.45;;;9.00;99.90;;;;;;5093613;28;20048;-22
2023/04/25 09:10:27;;;;;;;6.15;1.10;;;8.90;99.90;;;;;;5093627;28;20096;-22
2023/04/25 09:13:08;;;;;;;9.48;1.70;;;9.20;1.00;;;;;;5075776;28;20041;-22
2023/04/25 09:15:46;;;;;;;7.15;2.38;;;9.70;99.90;;;;;;5094235;28;20051;-22
2023/04/25 09:18:12;;;;;;;11.18;1.83;;;9.80;1.00;;;;;;5076216;28;20390;-22
2023/04/25 09:20:46;;;;;;;10.93;2.03;;;8.90;94.40;;;;;;5093531;28;20494;-22
2023/04/25 09:23:14;;;;;;;15.32;3.25;;;8.20;99.90;;;;;;5093610;28;20040;-22
2023/04/25 09:25:40;;;;;;;13.82;1.65;;;8.20;99.90;;;;;;5075545;28;20040;-22
2023/04/25 09:28:06;;;;;;;8.30;1.13;;;8.60;1.00;;;;;;5093451;28;20048;-22
2023/04/25 09:30:36;;;;;;;5.78;1.20;;;9.30;99.90;;;;;;5093958;28;20044;-22
2023/04/25 09:33:06;;;;;;;5.50;1.05;;;9.70;99.90;;;;;;5075530;28;20181;-22
2023/04/25 09:35:43;;;;;;;7.38;1.33;;;9.70;1.00;;;;;;5075513;28;20048;-22
2023/04/25 09:38:13;;;;;;;7.53;0.90;;;9.20;52.80;;;;;;5093686;28;20044;-22
2023/04/25 09:40:43;;;;;;;8.77;1.98;;;8.60;99.90;;;;;;5093890;28;20406;-22
2023/04/25 09:43:20;;;;;;;14.77;2.03;;;8.20;1.00;;;;;;5093246;28;20037;-22
2023/04/25 09:45:47;;;;;;;14.65;2.20;;;7.90;24.80;;;;;;5093013;28;20052;-21
2023/04/25 09:48:18;;;;;;;11.40;1.60;;;7.90;99.90;;;;;;5093574;28;20087;-22
2023/04/25 09:50:45;;;;;;;8.18;1.63;;;8.60;99.90;;;;;;5093326;28;20127;-22
2023/04/25 09:53:10;;;;;;;9.32;1.40;;;9.00;1.00;;;;;;5093138;28;20032;-22
2023/04/25 09:55:37;;;;;;;10.70;1.85;;;9.30;1.00;;;;;;5075220;28;20097;-22
2023/04/25 09:58:07;;;;;;;6.80;1.40;;;9.50;99.90;;;;;;5093177;28;20044;-22
2023/04/25 10:00:34;;;;;;;6.90;1.88;;;10.10;99.90;;;;;;5078362;28;20521;-22
2023/04/25 10:03:05;;;;;;;12.77;1.90;;;10.30;1.00;;;;;;5096811;28;20047;-22
2023/04/25 10:05:35;;;;;;;10.10;1.73;;;10.30;1.00;;;;;;5096790;28;20087;-22
2023/04/25 10:08:06;;;;;;;8.40;1.48;;;10.10;99.90;;;;;;5097333;28;20079;-22
2023/04/25 10:10:35;;;;;;;10.02;1.38;;;9.60;1.00;;;;;;5097575;28;20101;-22
2023/04/25 10:13:06;;;;;;;7.65;1.38;;;8.80;1.00;;;;;;5097389;28;20048;-22
2023/04/25 10:15:36;;;;;;;7.10;1.50;;;8.20;5.30;;;;;;5078536;28;20487;-22
2023/04/25 10:18:02;;;;;;;8.75;1.67;;;8.20;1.00;;;;;;5097352;28;20054;-22
2023/04/25 10:20:29;;;;;;;7.90;1.55;;;8.90;99.90;;;;;;5096545;28;20048;-22
2023/04/25 10:23:03;;;;;;;14.68;1.90;;;8.80;99.90;;;;;;5096462;28;20040;-22
2023/04/25 10:25:29;;;;;;;8.45;1.38;;;8.70;5.50;;;;;;5096735;28;20116;-22
2023/04/25 10:27:55;;;;;;;12.23;1.38;;;9.70;96.90;;;;;;5096349;28;20494;-22
2023/04/25 10:30:21;;;;;;;10.45;1.83;;;10.10;99.90;;;;;;5078284;28;20052;-22
2023/04/25 10:32:48;;;;;;;10.85;2.28;;;9.20;3.30;;;;;;5096161;28;20108;-22
2023/04/25 10:35:19;;;;;;;13.30;2.53;;;8.50;1.00;;;;;;5096176;28;20448;-22
2023/04/25 10:38:10;;;;;;;10.27;1.83;;;8.10;1.00;;;;;;5096197;28;20070;-22
2023/04/25 10:40:39;;;;;;;7.35;1.58;;;8.10;99.90;;;;;;5096165;28;20040;-23
2023/04/25 10:43:43;;;;;;;10.85;1.55;;;8.00;1.00;;;;;;5061826;28;20476;-22
2023/04/25 10:46:25;;;;;;;8.18;1.08;;;8.80;99.90;;;;;;5095400;28;20500;-22
2023/04/25 10:48:52;;;;;;;7.75;1.17;;;9.40;99.90;;;;;;5078136;28;20051;-22
2023/04/25 10:51:23;;;;;;;8.68;1.75;;;9.40;1.00;;;;;;5095880;28;20140;-22
2023/04/25 10:54:08;;;;;;;7.75;1.05;;;9.40;1.00;;;;;;5095814;28;20043;-22
2023/04/25 10:56:39;;;;;;;11.75;1.38;;;9.20;1.00;;;;;;5096146;28;20060;-22
2023/04/25 10:59:10;;;;;;;7.22;1.25;;;9.40;99.90;;;;;;5078586;28;20051;-22
2023/04/25 11:01:41;;;;;;;7.15;0.90;;;9.30;49.40;;;;;;5095995;28;20379;-22
2023/04/25 11:04:29;;;;;;;9.43;1.50;;;9.60;99.90;;;;;;5095777;28;20040;-22
2023/04/25 11:07:22;;;;;;;6.47;1.92;;;9.90;99.90;;;;;;5095968;28;20044;-22
2023/04/25 11:09:49;;;;;;;6.75;1.05;;;10.40;1.00;;;;;;5077716;28;20079;-22
2023/04/25 11:12:16;;;;;;;7.63;1.17;;;10.40;54.10;;;;;;5076516;28;20048;-22
2023/04/25 11:14:42;;;;;;;4.45;0.90;;;10.50;1.00;;;;;;5077583;28;20113;-22
2023/04/25 11:17:07;;;;;;;8.88;1.50;;;10.50;99.90;;;;;;5077534;28;20436;-22
2023/04/25 11:19:33;;;;;;;9.50;1.27;;;10.60;1.00;;;;;;5095333;28;20062;-22
2023/04/25 11:22:01;;;;;;;5.57;1.45;;;10.00;99.90;;;;;;5095284;28;20036;-22
2023/04/25 11:24:32;;;;;;;5.65;1.33;;;9.60;1.00;;;;;;5095247;28;20071;-22
2023/04/25 11:26:59;;;;;;;6.93;1.40;;;9.80;99.90;;;;;;5095790;28;20066;-22
2023/04/25 11:29:29;;;;;;;6.28;1.13;;;9.80;1.00;;;;;;5095219;28;20048;-22
2023/04/25 11:31:57;;;;;;;3.95;1.05;;;10.20;99.90;;;;;;5095140;28;20112;-22
2023/04/25 11:34:33;;;;;;;8.80;1.00;;;10.10;94.30;;;;;;5077258;28;20048;-22
2023/04/25 11:37:03;;;;;;;9.77;1.55;;;9.70;99.90;;;;;;5061412;28;20055;-22
2023/04/25 11:39:29;;;;;;;6.90;1.52;;;10.20;43.80;;;;;;5095551;28;20051;-23
2023/04/25 11:41:55;;;;;;;5.88;1.23;;;10.60;1.00;;;;;;5077674;28;20496;-23
2023/04/25 11:44:21;;;;;;;10.10;1.52;;;10.80;99.90;;;;;;5076753;28;20044;-22
2023/04/25 11:46:47;;;;;;;8.10;1.27;;;10.60;99.90;;;;;;5076325;28;20417;-22
2023/04/25 11:49:17;;;;;;;7.07;1.42;;;10.30;1.00;;;;;;5095280;28;20482;-23
2023/04/25 11:51:48;;;;;;;7.65;1.40;;;9.90;99.90;;;;;;5094725;28;20051;-22
2023/04/25 11:54:14;;;;;;;8.60;1.27;;;9.20;99.90;;;;;;5094706;28;20110;-22
2023/04/25 11:56:46;;;;;;;11.30;1.48;;;8.70;1.00;;;;;;5094671;28;20040;-22
2023/04/25 11:59:12;;;;;;;4.80;1.05;;;8.40;99.90;;;;;;5076716;28;20052;-23
2023/04/25 12:01:40;;;;;;;10.48;1.80;;;8.40;99.90;;;;;;5094556;28;20036;-23
2023/04/25 12:04:20;;;;;;;9.68;2.03;;;9.10;99.90;;;;;;5095050;28;20379;-22
2023/04/25 12:06:50;;;;;;;5.35;1.02;;;9.40;43.60;;;;;;5095098;28;20421;-23
2023/04/25 12:09:30;;;;;;;11.70;1.15;;;9.10;99.90;;;;;;5076636;28;20109;-23
2023/04/25 12:11:58;;;;;;;8.57;1.60;;;9.40;99.90;;;;;;5094392;28;20052;-23
2023/04/25 12:14:26;;;;;;;8.80;1.48;;;10.00;99.90;;;;;;5076483;28;20520;-23
2023/04/25 12:16:55;;;;;;;10.35;1.20;;;9.70;99.90;;;;;;5076950;28;20052;-22
2023/04/25 12:19:21;;;;;;;6.13;1.38;;;9.50;99.90;;;;;;5094248;28;20115;-22
2023/04/25 12:21:47;;;;;;;11.15;2.08;;;9.70;99.90;;;;;;5094750;28;20545;-22
2023/04/25 12:24:19;;;;;;;7.70;1.20;;;9.30;99.90;;;;;;5093928;28;20040;-22
2023/04/25 12:27:04;;;;;;;11.98;2.15;;;8.90;1.00;;;;;;5076653;28;20052;-22
2023/04/25 12:29:32;;;;;;;12.23;2.13;;;8.70;99.90;;;;;;5094755;28;20048;-22
2023/04/25 12:31:57;;;;;;;8.25;1.02;;;9.00;43.80;;;;;;5093991;28;20062;-22
2023/04/25 12:34:24;;;;;;;7.05;1.02;;;9.40;99.90;;;;;;5093998;28;20035;-22
2023/04/25 12:36:51;;;;;;;10.48;1.98;;;9.90;1.00;;;;;;5076048;28;20048;-23
2023/04/25 12:39:22;;;;;;;8.50;1.73;;;9.90;99.90;;;;;;5075826;28;20090;-22
2023/04/25 12:41:49;;;;;;;8.73;1.75;;;9.80;99.90;;;;;;5093935;28;20044;-22
2023/04/25 12:44:15;;;;;;;7.63;1.38;;;9.70;99.90;;;;;;5093733;28;20186;-22
2023/04/25 12:46:41;;;;;;;9.70;1.85;;;10.10;83.90;;;;;;5093826;28;20486;-23
2023/04/25 12:49:08;;;;;;;10.93;2.55;;;9.60;1.00;;;;;;5076012;28;20119;-23
2023/04/25 12:51:35;;;;;;;7.60;1.77;;;9.10;1.00;;;;;;5093776;28;20131;-22
2023/04/25 12:54:01;;;;;;;14.70;1.92;;;8.80;1.00;;;;;;5093685;28;20140;-22
2023/04/25 12:56:27;;;;;;;6.40;1.48;;;8.50;87.00;;;;;;5093736;28;20089;-22